createdAt,value
2022-09-22T00:03:06.719Z,7.23
2022-09-22T00:08:07.440Z,7.21
2022-09-22T00:13:08.484Z,7.20
2022-09-22T00:18:09.266Z,7.18
2022-09-22T00:23:10.277Z,6.99
2022-09-22T00:28:12.205Z,7.15
2022-09-22T00:33:12.988Z,7.02
2022-09-22T00:38:13.699Z,6.84
2022-09-22T00:43:25.059Z,6.86
2022-09-22T00:48:30.680Z,6.77
2022-09-22T00:53:31.679Z,6.85
2022-09-22T00:58:40.440Z,6.87
2022-09-22T01:03:42.037Z,6.88
2022-09-22T01:08:44.298Z,6.96
2022-09-22T01:17:17.721Z,6.82
2022-09-22T01:23:38.545Z,6.74
2022-09-22T01:29:04.335Z,6.68
2022-09-22T01:34:22.532Z,6.77
2022-09-22T01:39:34.249Z,6.81
2022-09-22T01:44:42.718Z,6.81
2022-09-22T01:49:49.890Z,6.68
2022-09-22T01:55:00.849Z,6.77
2022-09-22T02:00:05.360Z,6.79
2022-09-22T02:05:19.220Z,6.76
2022-09-22T02:10:25.113Z,6.66
2022-09-22T02:15:44.921Z,6.66
2022-09-22T02:20:45.833Z,6.69
2022-09-22T02:25:48.844Z,6.55
2022-09-22T02:31:10.890Z,6.59
2022-09-22T02:38:14.725Z,6.61
2022-09-22T02:43:35.057Z,6.63
2022-09-22T02:48:44.248Z,6.61
2022-09-22T02:53:45.761Z,6.51
2022-09-22T02:58:46.569Z,6.46
2022-09-22T03:03:47.376Z,6.27
2022-09-22T03:08:48.142Z,6.27
2022-09-22T03:13:49.249Z,6.36
2022-09-22T03:18:50.583Z,6.27
2022-09-22T03:23:51.536Z,6.33
2022-09-22T03:28:52.757Z,6.35
2022-09-22T03:33:53.601Z,6.38
2022-09-22T03:38:54.578Z,6.36
2022-09-22T03:43:55.379Z,6.36
2022-09-22T03:48:56.287Z,6.37
2022-09-22T03:53:57.097Z,6.50
2022-09-22T03:58:57.951Z,6.43
2022-09-22T04:03:58.702Z,6.40
2022-09-22T04:09:00.886Z,6.36
2022-09-22T04:14:03.089Z,6.35
2022-09-22T04:19:04.128Z,6.27
2022-09-22T04:24:07.010Z,6.29
2022-09-22T04:29:08.013Z,6.28
2022-09-22T04:34:08.879Z,6.26
2022-09-22T04:39:09.603Z,6.26
2022-09-22T04:44:10.361Z,6.29
2022-09-22T04:49:12.908Z,6.27
2022-09-22T04:54:14.079Z,6.29
2022-09-22T04:59:14.845Z,6.25
2022-09-22T05:04:15.989Z,6.20
2022-09-22T05:09:17.170Z,6.21
2022-09-22T05:14:21.605Z,6.18
2022-09-22T05:19:25.229Z,6.11
2022-09-22T05:24:26.457Z,6.18
2022-09-22T05:29:28.114Z,6.12
2022-09-22T05:34:29.072Z,6.25
2022-09-22T05:39:30.205Z,7.25
2022-09-22T05:44:30.945Z,7.65
2022-09-22T05:49:31.778Z,7.72
2022-09-22T05:54:32.500Z,7.86
2022-09-22T05:59:33.282Z,8.03
2022-09-22T06:04:34.259Z,8.08
2022-09-22T06:09:35.467Z,8.36
2022-09-22T06:14:36.246Z,8.47
2022-09-22T06:19:38.591Z,8.76
2022-09-22T06:24:39.616Z,8.75
2022-09-22T06:29:40.985Z,8.92
2022-09-22T06:34:43.903Z,9.08
2022-09-22T06:39:44.947Z,9.29
2022-09-22T06:44:46.714Z,9.50
2022-09-22T06:49:47.541Z,9.38
2022-09-22T06:54:51.251Z,9.25
2022-09-22T06:59:53.463Z,9.49
2022-09-22T07:04:58.219Z,9.47
2022-09-22T07:09:58.985Z,9.50
2022-09-22T07:15:00.146Z,9.30
2022-09-22T07:20:01.670Z,9.32
2022-09-22T07:25:02.777Z,9.54
2022-09-22T07:30:04.213Z,9.73
2022-09-22T07:35:05.744Z,9.76
2022-09-22T07:40:07.601Z,9.79
2022-09-22T07:45:12.006Z,9.68
2022-09-22T07:50:16.432Z,9.81
2022-09-22T07:55:17.295Z,9.83
2022-09-22T08:00:18.059Z,10.13
2022-09-22T08:05:19.285Z,10.28
2022-09-22T08:10:20.198Z,10.63
2022-09-22T08:15:26.185Z,10.96
2022-09-22T08:20:29.384Z,11.22
2022-09-22T08:25:30.865Z,11.46
2022-09-22T08:30:31.655Z,11.66
2022-09-22T08:35:33.961Z,11.62
2022-09-22T08:40:34.945Z,11.69
2022-09-22T08:45:40.233Z,12.05
2022-09-22T08:51:15.026Z,11.72
2022-09-22T08:56:45.760Z,11.75
2022-09-22T09:02:07.763Z,11.96
2022-09-22T09:10:14.821Z,12.15
2022-09-22T09:15:33.156Z,12.60
2022-09-22T09:20:44.103Z,12.45
2022-09-22T09:25:52.849Z,12.81
2022-09-22T09:31:06.808Z,13.09
2022-09-22T09:36:17.536Z,13.11
2022-09-22T09:41:36.587Z,13.66
2022-09-22T09:50:31.349Z,13.81
2022-09-22T09:55:34.469Z,14.04
2022-09-22T10:00:55.679Z,14.57
2022-09-22T10:06:03.710Z,14.58
2022-09-22T10:11:04.793Z,14.06
2022-09-22T10:16:19.252Z,14.07
2022-09-22T10:21:22.080Z,14.17
2022-09-22T10:26:29.458Z,13.87
2022-09-22T10:31:31.519Z,13.75
2022-09-22T10:36:35.210Z,14.37
2022-09-22T10:41:37.536Z,14.40
2022-09-22T10:47:39.772Z,14.89
2022-09-22T10:52:51.077Z,14.37
2022-09-22T10:59:55.549Z,14.95
2022-09-22T11:07:20.181Z,15.14
2022-09-22T11:13:02.461Z,14.88
2022-09-22T11:19:12.396Z,15.34
2022-09-22T11:26:05.133Z,15.99
2022-09-22T11:31:07.175Z,15.48
2022-09-22T11:36:40.767Z,15.73
2022-09-22T11:42:00.259Z,15.02
2022-09-22T11:48:13.594Z,15.24
2022-09-22T11:55:17.904Z,14.95
2022-09-22T12:00:20.807Z,15.01
2022-09-22T12:05:47.698Z,15.13
2022-09-22T12:10:50.605Z,15.85
2022-09-22T12:16:11.954Z,15.99
2022-09-22T12:21:44.411Z,16.05
2022-09-22T12:26:47.584Z,16.10
2022-09-22T12:31:51.134Z,15.83
2022-09-22T12:36:56.466Z,15.64
2022-09-22T12:42:02.562Z,15.38
2022-09-22T12:47:07.249Z,15.39
2022-09-22T12:53:28.024Z,15.65
2022-09-22T12:58:39.761Z,15.71
2022-09-22T13:03:48.811Z,16.24
2022-09-22T13:09:20.900Z,16.13
2022-09-22T13:14:56.426Z,15.96
2022-09-22T13:19:57.137Z,15.53
2022-09-22T13:24:58.021Z,15.79
2022-09-22T13:29:58.746Z,16.22
2022-09-22T13:34:59.613Z,15.41
2022-09-22T13:40:01.258Z,15.61
2022-09-22T13:45:17.941Z,15.62
2022-09-22T13:50:22.403Z,15.65
2022-09-22T13:55:33.162Z,15.88
2022-09-22T14:01:08.812Z,15.85
2022-09-22T14:06:19.371Z,16.07
2022-09-22T14:11:23.692Z,15.63
2022-09-22T14:17:28.565Z,15.87
2022-09-22T14:22:39.539Z,15.98
2022-09-22T14:27:49.126Z,16.45
2022-09-22T14:32:53.806Z,16.11
2022-09-22T14:37:59.196Z,16.17
2022-09-22T14:43:20.129Z,16.13
2022-09-22T14:48:29.300Z,15.92
2022-09-22T14:53:56.773Z,15.71
2022-09-22T15:02:31.418Z,16.33
2022-09-22T15:07:34.959Z,15.75
2022-09-22T15:12:45.053Z,15.92
2022-09-22T15:18:12.268Z,16.18
2022-09-22T15:23:44.067Z,16.02
2022-09-22T15:28:46.917Z,15.67
2022-09-22T15:33:48.484Z,15.34
2022-09-22T15:38:49.570Z,15.57
2022-09-22T15:43:50.510Z,15.70
2022-09-22T15:48:51.836Z,15.49
2022-09-22T15:53:52.963Z,15.38
2022-09-22T15:58:57.845Z,14.93
2022-09-22T16:04:00.483Z,15.19
2022-09-22T16:09:01.329Z,15.16
2022-09-22T16:14:05.688Z,15.05
2022-09-22T16:19:09.709Z,15.02
2022-09-22T16:24:11.053Z,14.70
2022-09-22T16:29:12.353Z,14.57
2022-09-22T16:34:13.086Z,14.54
2022-09-22T16:39:13.852Z,14.43
2022-09-22T16:44:15.218Z,14.42
2022-09-22T16:49:16.641Z,14.47
2022-09-22T16:54:18.666Z,14.33
2022-09-22T16:59:22.187Z,14.36
2022-09-22T17:04:23.112Z,14.13
2022-09-22T17:09:24.117Z,14.10
2022-09-22T17:14:26.999Z,13.91
2022-09-22T17:19:27.952Z,13.75
2022-09-22T17:24:29.657Z,13.46
2022-09-22T17:29:31.877Z,13.21
2022-09-22T17:34:33.961Z,12.94
2022-09-22T17:39:35.126Z,12.71
2022-09-22T17:44:35.892Z,12.50
2022-09-22T17:49:56.570Z,12.33
2022-09-22T17:55:06.204Z,12.19
2022-09-22T18:00:20.263Z,12.02
2022-09-22T18:05:25.866Z,11.91
2022-09-22T18:10:30.305Z,11.70
2022-09-22T18:15:31.086Z,11.57
2022-09-22T18:20:32.808Z,11.39
2022-09-22T18:25:34.277Z,11.28
2022-09-22T18:30:35.811Z,11.02
2022-09-22T18:35:36.616Z,10.86
2022-09-22T18:40:37.435Z,10.73
2022-09-22T18:45:38.715Z,10.76
2022-09-22T18:50:40.140Z,10.57
2022-09-22T18:55:41.191Z,10.17
2022-09-22T19:00:41.923Z,10.16
2022-09-22T19:05:42.704Z,10.20
2022-09-22T19:10:43.444Z,10.32
2022-09-22T19:15:44.360Z,10.24
2022-09-22T19:20:45.139Z,10.25
2022-09-22T19:25:50.968Z,10.20
2022-09-22T19:30:51.774Z,10.20
2022-09-22T19:35:52.574Z,10.18
2022-09-22T19:40:55.426Z,10.15
2022-09-22T19:45:56.387Z,9.97
2022-09-22T19:50:58.743Z,9.85
2022-09-22T19:56:01.194Z,9.90
2022-09-22T20:01:05.633Z,9.91
2022-09-22T20:06:06.928Z,9.81
2022-09-22T20:11:25.635Z,9.65
2022-09-22T20:16:27.629Z,9.58
2022-09-22T20:21:28.607Z,9.51
2022-09-22T20:26:30.609Z,9.65
2022-09-22T20:31:31.718Z,9.68
2022-09-22T20:36:36.882Z,9.55
2022-09-22T20:41:39.910Z,9.56
2022-09-22T20:46:41.943Z,9.46
2022-09-22T20:51:42.809Z,9.39
2022-09-22T20:56:44.664Z,9.44
2022-09-22T21:01:46.169Z,9.42
2022-09-22T21:06:47.059Z,9.23
2022-09-22T21:11:47.790Z,9.24
2022-09-22T21:16:50.799Z,9.13
2022-09-22T21:21:51.543Z,9.03
2022-09-22T21:26:52.565Z,9.01
2022-09-22T21:31:53.297Z,9.15
2022-09-22T21:36:54.046Z,9.20
2022-09-22T21:41:55.627Z,9.12
2022-09-22T21:46:56.384Z,8.94
2022-09-22T21:51:57.110Z,8.86
2022-09-22T21:56:58.217Z,8.82
2022-09-22T22:01:59.212Z,8.57
2022-09-22T22:07:00.894Z,8.56
2022-09-22T22:12:01.643Z,8.52
2022-09-22T22:17:04.870Z,8.63
2022-09-22T22:22:05.719Z,8.67
2022-09-22T22:27:09.220Z,8.45
2022-09-22T22:32:09.974Z,8.51
2022-09-22T22:37:10.973Z,8.39
2022-09-22T22:42:11.726Z,8.14
2022-09-22T22:47:12.745Z,7.95
2022-09-22T22:52:13.503Z,7.89
2022-09-22T22:57:14.700Z,7.98
2022-09-22T23:02:15.432Z,8.05
2022-09-22T23:07:16.186Z,8.08
2022-09-22T23:12:18.394Z,8.11
2022-09-22T23:17:19.169Z,7.88
2022-09-22T23:22:20.119Z,7.96
2022-09-22T23:27:20.990Z,7.88
2022-09-22T23:32:22.852Z,7.78
2022-09-22T23:37:24.102Z,7.82
2022-09-22T23:42:25.072Z,7.83
2022-09-22T23:47:25.819Z,7.78
2022-09-22T23:52:26.651Z,7.84
2022-09-22T23:57:27.447Z,7.79
